Aérodrome :
LOGIN :

S'inscrire | Disclaimer

   EN    FR    IT 

 










Légende :    VFR   VFR Marginal   IFR   IFR Intensif   IFR Très Intensif
Visi : 
Plafond : 
>= 8 km
>= 3000ft
5 à 8 km
1000 à 3000 ft
1500m à 5 km
500 à 1000 ft
800 à 1500m
200 à 500 ft
< 800m
< 200 ft
Symboles :   Orages  Brouillard  Fortes neiges  Fortes précipitations  Vent > 20 kt
SIGMETs :   Divers  Orages  Givrage  Turbulence  Onde Orograph.  Cendres Volcan.







- Altitude de l'aérodrome : 302 ft
- Code IATA : CGN


EDDK - Cologne Bonn

DERNIER METAR :
  • 181450Z VRB02KT 7000 SHRA FEW008 BKN013CB 19/18 Q1007 BECMG NSW BKN030

METARs EXPIRÉS :
  • 181420Z 36006KT 5000 SHRA FEW015 SCT020CB BKN031 20/18 Q1007 BECMG NSW
  • 181350Z 36003KT 320V030 9999 FEW015 BKN035 20/17 Q1006 TEMPO 25015G25KT SHRA BKN020CB
  • 181320Z 01004KT 290V070 9999 -RA FEW013 SCT039 20/17 Q1006 NOSIG
  • 181250Z 27007KT 240V300 9999 FEW010 BKN034 20/17 Q1006 NOSIG
  • 181220Z 30008KT 9999 FEW011 FEW020TCU BKN030 20/17 Q1006 RESHRA NOSIG

TAF AMD TAF EDDK
Valide du 18 à 14h jusqu'au 19 à 18h UTC


181405Z 1814/1918 VRB03KT 9999 BKN035
TEMPO 1814/1817 25015G25KT 4000 SHRA BKN020CB
BECMG 1905/1908 25009KT
Pas de NOTAMs connus pour ce terrain.



MET'MAP, la Météo Aéronautique d'un coup d'oeil ! - Copyright ORBIFLY Décembre 2007 - Disclaimer

ORBIFLY MET'MAP TEAM :

Programmation & Développement : Alexandra Zaïnal
Conception & Développement : Baudouin d'Aumeries
Co-Programmation & Développement : Marc-Olivier Méhu
Soutien technique & logistique : Manuel Goepfert

Contact : metmap@orbifly.com




SOURCES & CREDITS :

   NOAA